Time;durP1;ratioP1;P1;durP2;ratioP2;P2;SDS_P1;SDS_P2;PMS_P1;PMS_P2;Temp;Humidity;BMP_temperature;BMP_pressure;BME280_temperature;BME280_humidity;BME280_pressure;Samples;Min_cycle;Max_cycle;Signal;HPM_P1;HPM_P2
2021/06/23 00:00:53;;;;;;;0;0;;;;;;;18.8;89.43164;938.5162;;;;
2021/06/23 00:03:18;;;;;;;0.1;0.1;;;;;;;18.77;89.34668;938.5006;;;;
2021/06/23 00:05:45;;;;;;;0.6;0.4;;;;;;;18.77;88.32129;938.4927;;;;
2021/06/23 00:08:10;;;;;;;0.2;0.2;;;;;;;18.76;88.05176;938.5009;;;;
2021/06/23 00:10:37;;;;;;;0;0;;;;;;;18.76;88.44727;938.5413;;;;
2021/06/23 00:13:05;;;;;;;0;0;;;;;;;18.68;88.38672;938.476;;;;
2021/06/23 00:15:36;;;;;;;0.1;0.1;;;;;;;18.66;90.0332;938.4506;;;;
2021/06/23 00:18:02;;;;;;;0.3;0.3;;;;;;;18.56;89.89648;938.4925;;;;
2021/06/23 00:20:27;;;;;;;1.9;0.6;;;;;;;18.44;91.03516;938.4708;;;;
2021/06/23 00:22:53;;;;;;;0.2;0.2;;;;;;;18.47;91.49414;938.4919;;;;
2021/06/23 00:25:18;;;;;;;0.2;0.2;;;;;;;18.5;90.16406;938.3873;;;;
2021/06/23 00:27:43;;;;;;;0.2;0.2;;;;;;;18.48;89.74023;938.4755;;;;
2021/06/23 00:30:09;;;;;;;0.4;0.4;;;;;;;18.54;90.52051;938.476;;;;
2021/06/23 00:32:34;;;;;;;0;0;;;;;;;18.49;90.91602;938.4858;;;;
2021/06/23 00:34:59;;;;;;;0;0;;;;;;;18.38;91.47559;938.449;;;;
2021/06/23 00:37:24;;;;;;;0.1;0.1;;;;;;;18.41;90.79492;938.5178;;;;
2021/06/23 00:39:51;;;;;;;0.2;0.2;;;;;;;18.39;90.2793;938.4706;;;;
2021/06/23 00:42:16;;;;;;;0.3;0.3;;;;;;;18.37;90.03223;938.5074;;;;
2021/06/23 00:44:41;;;;;;;0.2;0.2;;;;;;;18.35;90.12109;938.4335;;;;
2021/06/23 00:47:08;;;;;;;0.1;0.1;;;;;;;18.28;90.62891;938.4084;;;;
2021/06/23 00:49:33;;;;;;;0.2;0.2;;;;;;;18.28;90.99902;938.4431;;;;
2021/06/23 00:51:59;;;;;;;2.1;0.4;;;;;;;18.35;90.81641;938.3909;;;;
2021/06/23 00:54:24;;;;;;;0.1;0.1;;;;;;;18.34;91.2002;938.3725;;;;
2021/06/23 00:56:50;;;;;;;0.3;0.3;;;;;;;18.34;91.97754;938.2678;;;;
2021/06/23 00:59:15;;;;;;;0.1;0.1;;;;;;;18.32;92.01953;938.2729;;;;
2021/06/23 01:01:40;;;;;;;0.2;0.2;;;;;;;18.32;91.66113;938.4092;;;;
2021/06/23 01:04:06;;;;;;;0.1;0.1;;;;;;;18.14;93.69238;938.4431;;;;
2021/06/23 01:06:31;;;;;;;0.2;0.1;;;;;;;18.15;94.04102;938.443;;;;
2021/06/23 01:08:57;;;;;;;0.1;0.1;;;;;;;18.28;93.7793;938.4939;;;;
2021/06/23 01:11:23;;;;;;;0.3;0.3;;;;;;;18.35;93.67773;938.5159;;;;
2021/06/23 01:13:58;;;;;;;0.1;0.1;;;;;;;18.35;93.39941;938.4489;;;;
2021/06/23 01:16:22;;;;;;;0.1;0.1;;;;;;;18.34;92.28125;938.4749;;;;
2021/06/23 01:18:47;;;;;;;0.1;0.1;;;;;;;18.42;92.08691;938.4548;;;;
2021/06/23 01:21:12;;;;;;;0.1;0.1;;;;;;;18.42;92.20508;938.5284;;;;
2021/06/23 01:23:37;;;;;;;0.1;0.1;;;;;;;18.35;92.36426;938.469;;;;
2021/06/23 01:26:02;;;;;;;0;0;;;;;;;18.34;91.65137;938.4411;;;;
2021/06/23 01:28:27;;;;;;;0.2;0.2;;;;;;;18.35;91.50488;938.4658;;;;
2021/06/23 01:30:52;;;;;;;0;0;;;;;;;18.26;91.63672;938.5023;;;;
2021/06/23 01:33:18;;;;;;;0.4;0.4;;;;;;;18.27;91.83594;938.5158;;;;
2021/06/23 01:35:43;;;;;;;0.2;0.2;;;;;;;18.3;92.09766;938.4249;;;;
2021/06/23 01:38:08;;;;;;;0.7;0.5;;;;;;;18.26;92.13672;938.4515;;;;
2021/06/23 01:40:33;;;;;;;0.1;0.1;;;;;;;18.21;92.54492;938.4997;;;;
2021/06/23 01:42:58;;;;;;;0.2;0.2;;;;;;;18.15;92.78613;938.4986;;;;
2021/06/23 01:45:25;;;;;;;0.2;0.2;;;;;;;18.23;92.75684;938.4586;;;;
2021/06/23 01:47:50;;;;;;;0.1;0.1;;;;;;;18.36;92.05078;938.4786;;;;
2021/06/23 01:50:17;;;;;;;0.2;0.2;;;;;;;18.37;91.68262;938.4719;;;;
2021/06/23 01:52:42;;;;;;;0.1;0.1;;;;;;;18.24;92.08594;938.4697;;;;
2021/06/23 01:55:09;;;;;;;0.2;0.2;;;;;;;18.27;92.02246;938.486;;;;
2021/06/23 01:57:34;;;;;;;0.2;0.2;;;;;;;18.3;91.79492;938.4847;;;;
2021/06/23 01:59:59;;;;;;;0.1;0.1;;;;;;;18.3;91.74902;938.4322;;;;
2021/06/23 02:02:30;;;;;;;0.2;0.2;;;;;;;18.23;91.21289;938.3964;;;;
2021/06/23 02:04:55;;;;;;;0.1;0.1;;;;;;;18.25;90.97266;938.3357;;;;
2021/06/23 02:07:50;;;;;;;0.2;0.2;;;;;;;18.05;91.20801;938.4473;;;;
2021/06/23 02:10:14;;;;;;;0.1;0.1;;;;;;;18.08;91.19043;938.4637;;;;
2021/06/23 02:12:39;;;;;;;0.5;0.4;;;;;;;18.08;91.31836;938.4283;;;;
2021/06/23 02:15:05;;;;;;;0.1;0.1;;;;;;;18.03;91.73926;938.3872;;;;
2021/06/23 02:17:30;;;;;;;0.3;0.3;;;;;;;17.95;92.26758;938.3803;;;;
2021/06/23 02:19:55;;;;;;;0;0;;;;;;;17.93;92.36816;938.3881;;;;
2021/06/23 02:22:20;;;;;;;0.1;0.1;;;;;;;18;91.82422;938.4045;;;;
2021/06/23 02:24:45;;;;;;;0.4;0.4;;;;;;;18.07;91.63184;938.3284;;;;
2021/06/23 02:27:12;;;;;;;0.1;0.1;;;;;;;18.07;91.41113;938.4114;;;;
2021/06/23 02:29:37;;;;;;;0.2;0.2;;;;;;;18.08;91.33203;938.4241;;;;
2021/06/23 02:32:03;;;;;;;0.2;0.2;;;;;;;18.09;90.49707;938.3208;;;;
2021/06/23 02:34:28;;;;;;;0.1;0.1;;;;;;;18.04;90.39551;938.3152;;;;
2021/06/23 02:36:53;;;;;;;1.5;0.7;;;;;;;18.09;91.08008;938.3513;;;;
2021/06/23 02:39:19;;;;;;;0.3;0.3;;;;;;;18.12;90.5957;938.3541;;;;
2021/06/23 02:41:44;;;;;;;0.2;0.2;;;;;;;18.15;89.88086;938.3293;;;;
2021/06/23 02:44:09;;;;;;;0.2;0.2;;;;;;;18.15;89.59082;938.3155;;;;
2021/06/23 02:46:34;;;;;;;0.2;0.2;;;;;;;18.02;91.71387;938.322;;;;
2021/06/23 02:49:00;;;;;;;0.2;0.2;;;;;;;18.01;92.37598;938.3333;;;;
2021/06/23 02:51:25;;;;;;;0.2;0.2;;;;;;;17.97;92.77051;938.343;;;;
2021/06/23 02:54:00;;;;;;;0.1;0.1;;;;;;;18.01;92.12988;938.3463;;;;
2021/06/23 02:56:26;;;;;;;0;0;;;;;;;18.01;91.35156;938.3881;;;;
2021/06/23 02:58:52;;;;;;;0;0;;;;;;;17.91;92.28516;938.402;;;;
2021/06/23 03:01:17;;;;;;;0.4;0.4;;;;;;;17.9;92.81348;938.383;;;;
2021/06/23 03:03:42;;;;;;;0.1;0.1;;;;;;;17.84;92.7793;938.4227;;;;
2021/06/23 03:06:09;;;;;;;0.4;0.4;;;;;;;17.77;92.14844;938.3674;;;;
2021/06/23 03:08:34;;;;;;;0.2;0.2;;;;;;;17.71;91.62695;938.4102;;;;
2021/06/23 03:10:59;;;;;;;0.1;0.1;;;;;;;17.74;91.5625;938.3943;;;;
2021/06/23 03:13:24;;;;;;;0.1;0.1;;;;;;;17.78;90.99121;938.4171;;;;
2021/06/23 03:15:55;;;;;;;0.1;0.1;;;;;;;17.81;90.5791;938.4117;;;;
2021/06/23 03:18:32;;;;;;;0.2;0.2;;;;;;;17.56;91.18848;938.4364;;;;
2021/06/23 03:20:54;;;;;;;0.2;0.2;;;;;;;17.29;93.68164;938.4576;;;;
2021/06/23 03:23:19;;;;;;;1.4;0.7;;;;;;;17.38;93.13379;938.5069;;;;
2021/06/23 03:25:45;;;;;;;0.3;0.3;;;;;;;17.37;92.99316;938.4434;;;;
2021/06/23 03:28:10;;;;;;;0.2;0.2;;;;;;;17.34;92.9873;938.5081;;;;
2021/06/23 03:30:35;;;;;;;0.3;0.3;;;;;;;17.14;93.73145;938.4757;;;;
2021/06/23 03:33:01;;;;;;;0.1;0.1;;;;;;;16.94;95.15137;938.5516;;;;
2021/06/23 03:35:26;;;;;;;0.2;0.2;;;;;;;16.99;94.1875;938.6064;;;;
2021/06/23 03:37:52;;;;;;;0.7;0.4;;;;;;;17.08;94.05664;938.5948;;;;
2021/06/23 03:40:17;;;;;;;0.2;0.2;;;;;;;17.22;93.48242;938.6774;;;;
2021/06/23 03:42:44;;;;;;;0.2;0.2;;;;;;;17.26;93.25977;938.6262;;;;
2021/06/23 03:45:10;;;;;;;0;0;;;;;;;17.36;92.50391;938.7654;;;;
2021/06/23 03:47:35;;;;;;;0.1;0.1;;;;;;;17.45;91.60645;938.7869;;;;
2021/06/23 03:50:00;;;;;;;0.2;0.2;;;;;;;17.53;91.48242;938.7679;;;;
2021/06/23 03:52:26;;;;;;;0.4;0.4;;;;;;;17.61;90.83984;938.7657;;;;
2021/06/23 03:54:51;;;;;;;0.1;0.1;;;;;;;17.68;90.63281;938.8683;;;;
2021/06/23 03:57:16;;;;;;;0.5;0.5;;;;;;;17.68;90.91309;938.9213;;;;
2021/06/23 03:59:41;;;;;;;0.4;0.4;;;;;;;17.69;91.2959;938.9294;;;;
2021/06/23 04:02:30;;;;;;;0.1;0.1;;;;;;;17.63;91.95801;938.95;;;;
2021/06/23 04:04:55;;;;;;;0;0;;;;;;;17.69;91.59961;938.9333;;;;
2021/06/23 04:07:20;;;;;;;0.2;0.2;;;;;;;17.68;91.63086;938.9576;;;;
2021/06/23 04:09:46;;;;;;;0.2;0.2;;;;;;;17.65;91.79883;938.9377;;;;
2021/06/23 04:12:12;;;;;;;0.1;0.1;;;;;;;17.65;91.50879;938.9835;;;;
2021/06/23 04:14:37;;;;;;;0.2;0.2;;;;;;;17.55;92.17285;938.9695;;;;
2021/06/23 04:17:03;;;;;;;0.2;0.2;;;;;;;17.48;92.78613;938.9144;;;;
2021/06/23 04:19:28;;;;;;;1.7;0.7;;;;;;;17.52;93.07227;939.0039;;;;
2021/06/23 04:21:53;;;;;;;0.2;0.2;;;;;;;17.53;93.07422;939.0375;;;;
2021/06/23 04:24:18;;;;;;;0.1;0.1;;;;;;;17.63;92.72559;939.0023;;;;
2021/06/23 04:26:44;;;;;;;0.2;0.2;;;;;;;17.7;92.01953;939.0233;;;;
2021/06/23 04:29:10;;;;;;;0.2;0.2;;;;;;;17.74;91.69043;938.9864;;;;
2021/06/23 04:31:35;;;;;;;0.4;0.4;;;;;;;17.72;92.17383;938.9352;;;;
2021/06/23 04:34:01;;;;;;;0.2;0.2;;;;;;;17.8;91.86621;938.9644;;;;
2021/06/23 04:36:26;;;;;;;0.3;0.3;;;;;;;17.88;91.25586;938.9745;;;;
2021/06/23 04:38:52;;;;;;;0.2;0.2;;;;;;;17.93;90.68457;939.0172;;;;
2021/06/23 04:41:17;;;;;;;0.2;0.2;;;;;;;17.9;90.17969;939.062;;;;
2021/06/23 04:43:44;;;;;;;0.1;0.1;;;;;;;17.89;90.16602;939.0429;;;;
2021/06/23 04:46:09;;;;;;;0;0;;;;;;;17.96;89.63477;938.9756;;;;
2021/06/23 04:48:35;;;;;;;0.1;0.1;;;;;;;18.08;90.01953;939.0261;;;;
2021/06/23 04:51:00;;;;;;;0.1;0.1;;;;;;;18.09;90.625;939.0017;;;;
2021/06/23 04:53:27;;;;;;;0.2;0.2;;;;;;;18.2;89.3457;938.9457;;;;
2021/06/23 04:55:53;;;;;;;0.2;0.2;;;;;;;18.14;90.07715;939.0404;;;;
2021/06/23 04:58:18;;;;;;;0.3;0.3;;;;;;;18.17;87.89941;939.0195;;;;
2021/06/23 05:00:43;;;;;;;0.4;0.4;;;;;;;18.21;88.37012;939.0101;;;;
2021/06/23 05:03:08;;;;;;;0;0;;;;;;;18.33;87.74609;939.0725;;;;
2021/06/23 05:05:33;;;;;;;0.2;0.2;;;;;;;18.23;88.57324;939.06;;;;
2021/06/23 05:07:58;;;;;;;0.1;0.1;;;;;;;18.31;88.83301;939.0665;;;;
2021/06/23 05:10:24;;;;;;;3.1;0.8;;;;;;;18.41;89.26074;939.1395;;;;
2021/06/23 05:12:49;;;;;;;1.1;0.6;;;;;;;18.22;90.76758;939.0759;;;;
2021/06/23 05:15:20;;;;;;;0.2;0.2;;;;;;;18.18;91.72266;939.0372;;;;
2021/06/23 05:17:45;;;;;;;6.3;1;;;;;;;18.09;92.34473;939.0783;;;;
2021/06/23 05:20:10;;;;;;;0.2;0.2;;;;;;;18.02;92.68945;939.0667;;;;
2021/06/23 05:22:35;;;;;;;0;0;;;;;;;18.12;92.03613;939.0859;;;;
2021/06/23 05:25:00;;;;;;;0.6;0.6;;;;;;;18.16;91.11426;939.0368;;;;
2021/06/23 05:27:25;;;;;;;0.5;0.5;;;;;;;18.19;91.40137;939.108;;;;
2021/06/23 05:29:50;;;;;;;0.4;0.4;;;;;;;18.33;90.11523;939.1008;;;;
2021/06/23 05:32:15;;;;;;;1.3;1.1;;;;;;;18.48;89.85645;939.1088;;;;
2021/06/23 05:34:41;;;;;;;0.3;0.3;;;;;;;18.49;89.39453;939.1099;;;;
2021/06/23 05:37:06;;;;;;;0.4;0.4;;;;;;;18.54;88.85742;939.0815;;;;
2021/06/23 05:39:31;;;;;;;0.7;0.5;;;;;;;18.53;88.69336;939.2287;;;;
2021/06/23 05:41:57;;;;;;;0.3;0.3;;;;;;;18.57;87.5957;939.2358;;;;
2021/06/23 05:44:22;;;;;;;0.3;0.3;;;;;;;18.6;87.1123;939.3281;;;;
2021/06/23 05:46:48;;;;;;;0.8;0.7;;;;;;;18.64;87.78418;939.2947;;;;
2021/06/23 05:49:40;;;;;;;0.3;0.3;;;;;;;18.64;88.04004;939.3036;;;;
2021/06/23 05:52:06;;;;;;;0.1;0.1;;;;;;;18.78;88.90625;939.3281;;;;
2021/06/23 05:54:31;;;;;;;3.2;1.2;;;;;;;18.68;88.22168;939.3642;;;;
2021/06/23 05:56:57;;;;;;;15.7;1.2;;;;;;;18.86;87.69922;939.3641;;;;
2021/06/23 05:59:22;;;;;;;0.2;0.2;;;;;;;18.84;87.09082;939.3798;;;;
2021/06/23 06:01:47;;;;;;;0.4;0.4;;;;;;;18.76;86.58594;939.361;;;;
2021/06/23 06:04:13;;;;;;;0.4;0.4;;;;;;;18.7;86.54004;939.3645;;;;
2021/06/23 06:06:38;;;;;;;0.6;0.6;;;;;;;18.68;87.61719;939.4465;;;;
2021/06/23 06:09:04;;;;;;;0.2;0.2;;;;;;;18.8;87.7334;939.3747;;;;
2021/06/23 06:11:29;;;;;;;0.2;0.2;;;;;;;18.85;87.09277;939.5111;;;;
2021/06/23 06:14:22;;;;;;;2.7;0.6;;;;;;;18.74;86.46387;939.555;;;;
2021/06/23 06:16:48;;;;;;;11.5;0.6;;;;;;;18.76;86.37695;939.5594;;;;
2021/06/23 06:19:13;;;;;;;0.3;0.3;;;;;;;18.73;85.56836;939.5389;;;;
2021/06/23 06:21:40;;;;;;;0.1;0.1;;;;;;;18.78;86.6377;939.546;;;;
2021/06/23 06:24:05;;;;;;;0.2;0.2;;;;;;;18.78;85.9375;939.5912;;;;
2021/06/23 06:26:32;;;;;;;0.5;0.5;;;;;;;18.84;85.62402;939.6049;;;;
2021/06/23 06:28:57;;;;;;;0.3;0.3;;;;;;;18.99;87.46875;939.6179;;;;
2021/06/23 06:31:23;;;;;;;0.2;0.2;;;;;;;19.2;87.20898;939.6476;;;;
2021/06/23 06:33:51;;;;;;;0.2;0.2;;;;;;;19.27;84.91602;939.6675;;;;
2021/06/23 06:36:14;;;;;;;0.2;0.2;;;;;;;19.43;85.00391;939.6933;;;;
2021/06/23 06:38:39;;;;;;;0.6;0.5;;;;;;;19.5;84.15625;939.7645;;;;
2021/06/23 06:41:04;;;;;;;0.2;0.2;;;;;;;19.48;84.86133;939.7101;;;;
2021/06/23 06:43:29;;;;;;;0.9;0.5;;;;;;;19.54;85.3418;939.7153;;;;
2021/06/23 06:46:05;;;;;;;0.3;0.3;;;;;;;19.53;85.76953;939.6878;;;;
2021/06/23 06:48:30;;;;;;;1.1;0.8;;;;;;;19.43;85.09961;939.7433;;;;
2021/06/23 06:50:55;;;;;;;0.4;0.4;;;;;;;19.33;87.31348;939.7687;;;;
2021/06/23 06:53:21;;;;;;;0.7;0.5;;;;;;;19.4;87.74902;939.8002;;;;
2021/06/23 06:55:46;;;;;;;0.2;0.2;;;;;;;19.4;87.88867;939.755;;;;
2021/06/23 06:58:19;;;;;;;0.2;0.2;;;;;;;19.47;85.9082;939.7297;;;;
2021/06/23 07:00:46;;;;;;;0.1;0.1;;;;;;;19.63;85.60254;939.6959;;;;
2021/06/23 07:03:11;;;;;;;0.2;0.2;;;;;;;19.97;83.60547;939.6928;;;;
2021/06/23 07:05:38;;;;;;;0.2;0.2;;;;;;;20.21;81.1748;939.6168;;;;
2021/06/23 07:08:03;;;;;;;0.2;0.2;;;;;;;20.17;83.34961;939.6153;;;;
2021/06/23 07:10:28;;;;;;;0.5;0.5;;;;;;;20.59;82.91504;939.5811;;;;
2021/06/23 07:12:54;;;;;;;0.1;0.1;;;;;;;21.21;76.7959;939.5302;;;;
2021/06/23 07:15:23;;;;;;;1;0.2;;;;;;;21.48;74.82813;939.4998;;;;
2021/06/23 07:17:51;;;;;;;0.3;0.2;;;;;;;21.7;73.55273;939.4412;;;;
2021/06/23 07:20:16;;;;;;;0.2;0.2;;;;;;;21.79;73.3457;939.4774;;;;
2021/06/23 07:22:43;;;;;;;0.2;0.2;;;;;;;21.32;76.96582;939.4767;;;;
2021/06/23 07:25:08;;;;;;;0.2;0.2;;;;;;;21.37;77.94629;939.5051;;;;
2021/06/23 07:27:34;;;;;;;0.3;0.3;;;;;;;21.66;75.91211;939.3987;;;;
2021/06/23 07:29:59;;;;;;;0.2;0.2;;;;;;;21.63;76.04883;939.471;;;;
2021/06/23 07:32:26;;;;;;;0;0;;;;;;;22.68;70.98242;939.4791;;;;
2021/06/23 07:37:15;;;;;;;0.1;0.1;;;;;;;21.86;72.91211;939.4842;;;;
2021/06/23 07:39:40;;;;;;;0.3;0.3;;;;;;;23.51;72.17188;939.4547;;;;
2021/06/23 07:42:05;;;;;;;0.1;0.1;;;;;;;25.29;64.44336;939.3638;;;;
2021/06/23 07:44:34;;;;;;;0;0;;;;;;;26.59;55.27441;939.3481;;;;
2021/06/23 07:46:59;;;;;;;0.2;0.2;;;;;;;26.91;53.95313;939.3492;;;;
2021/06/23 07:49:25;;;;;;;0.7;0.6;;;;;;;26.52;55.29102;939.3172;;;;
2021/06/23 07:51:55;;;;;;;0.1;0.1;;;;;;;27.13;54.5957;939.2458;;;;
2021/06/23 07:54:22;;;;;;;0.1;0.1;;;;;;;28.03;51.2959;939.1986;;;;
2021/06/23 07:56:54;;;;;;;0.1;0.1;;;;;;;28.55;50.19043;939.2356;;;;
2021/06/23 08:11:17;;;;;;;1.1;0.5;;;;;;;29.41;45.49414;939.0343;;;;
2021/06/23 08:13:34;;;;;;;0.3;0.3;;;;;;;29.59;47.7666;939.0438;;;;
2021/06/23 08:15:59;;;;;;;0.1;0.1;;;;;;;29.34;45.36914;939.0112;;;;
2021/06/23 08:18:26;;;;;;;0.4;0.4;;;;;;;30.86;44.73242;938.9897;;;;
2021/06/23 08:20:51;;;;;;;0.7;0.4;;;;;;;31.02;43.62402;939.0045;;;;
2021/06/23 08:23:16;;;;;;;0.1;0.1;;;;;;;32.39;39.2334;938.9673;;;;
2021/06/23 08:25:41;;;;;;;0.7;0.5;;;;;;;31.81;42.28613;939.0048;;;;
2021/06/23 08:28:09;;;;;;;0.5;0.5;;;;;;;32.33;40.78809;938.9346;;;;
2021/06/23 08:30:33;;;;;;;0.5;0.5;;;;;;;30.98;41.45703;938.9708;;;;
2021/06/23 08:33:00;;;;;;;0.2;0.2;;;;;;;31.28;41.87891;938.9317;;;;
2021/06/23 08:35:24;;;;;;;0.1;0.1;;;;;;;30.96;43.80957;938.8873;;;;
2021/06/23 08:37:50;;;;;;;0.3;0.3;;;;;;;31.56;40.89844;938.8658;;;;
2021/06/23 08:40:15;;;;;;;0.4;0.4;;;;;;;31.24;42.04199;938.8802;;;;
2021/06/23 08:42:40;;;;;;;0.2;0.2;;;;;;;30.65;43.39746;938.8145;;;;
2021/06/23 08:45:05;;;;;;;0.2;0.2;;;;;;;30.05;45.30859;938.8677;;;;
2021/06/23 08:47:30;;;;;;;0;0;;;;;;;30.71;42.2207;938.7791;;;;
2021/06/23 08:49:57;;;;;;;11.8;0.8;;;;;;;29.99;45.2793;938.7944;;;;
2021/06/23 08:52:22;;;;;;;0.3;0.3;;;;;;;29.54;43.44629;938.7787;;;;
2021/06/23 08:54:53;;;;;;;0.1;0.1;;;;;;;29.29;47.58008;938.8109;;;;
2021/06/23 08:57:13;;;;;;;0.3;0.3;;;;;;;29.12;43.90625;938.7033;;;;
2021/06/23 08:59:38;;;;;;;0.4;0.4;;;;;;;29.05;47.54297;938.6939;;;;
2021/06/23 09:02:03;;;;;;;0.2;0.2;;;;;;;28.16;50.16992;938.723;;;;
2021/06/23 09:04:29;;;;;;;0.5;0.3;;;;;;;27.09;51.95996;938.7133;;;;
2021/06/23 09:06:55;;;;;;;0.2;0.2;;;;;;;27.7;50.20117;938.7224;;;;
2021/06/23 09:09:21;;;;;;;0.8;0.5;;;;;;;28.05;50.57324;938.7072;;;;
2021/06/23 09:11:46;;;;;;;0.3;0.3;;;;;;;29.29;48.40234;938.6863;;;;
2021/06/23 09:14:12;;;;;;;0.2;0.2;;;;;;;29.05;48.25684;938.6071;;;;
2021/06/23 09:16:37;;;;;;;0.6;0.5;;;;;;;29.98;46.20898;938.5953;;;;
2021/06/23 09:19:02;;;;;;;0.4;0.4;;;;;;;28.66;49.42871;938.6583;;;;
2021/06/23 09:21:27;;;;;;;0.1;0.1;;;;;;;30.08;45.07324;938.634;;;;
2021/06/23 09:23:53;;;;;;;0.2;0.2;;;;;;;29.15;46.18359;938.5958;;;;
2021/06/23 09:26:26;;;;;;;0.2;0.2;;;;;;;28.38;51.28711;938.5938;;;;
2021/06/23 09:28:50;;;;;;;0.2;0.2;;;;;;;28.38;47.12695;938.5806;;;;
2021/06/23 09:31:15;;;;;;;0.3;0.3;;;;;;;27.65;54.77832;938.5787;;;;
2021/06/23 09:33:40;;;;;;;0.3;0.3;;;;;;;28.45;50.22656;938.5639;;;;
2021/06/23 09:36:05;;;;;;;0.1;0.1;;;;;;;28.02;50.48633;938.5203;;;;
2021/06/23 09:38:40;;;;;;;0.4;0.4;;;;;;;27.62;53.35059;938.5519;;;;
2021/06/23 09:41:05;;;;;;;0.2;0.2;;;;;;;28.56;48.66895;938.4871;;;;
2021/06/23 09:43:30;;;;;;;0.3;0.3;;;;;;;27.6;53.53711;938.5213;;;;
2021/06/23 09:45:55;;;;;;;0.4;0.3;;;;;;;28.17;52.0957;938.4308;;;;
2021/06/23 09:48:20;;;;;;;0.1;0.1;;;;;;;27.27;52.9873;938.5009;;;;
2021/06/23 09:50:49;;;;;;;0.1;0.1;;;;;;;27.36;52.16797;938.4928;;;;
2021/06/23 09:53:17;;;;;;;0.1;0.1;;;;;;;26.69;56.59082;938.4681;;;;
2021/06/23 09:55:41;;;;;;;0.3;0.3;;;;;;;26.91;54.48633;938.4977;;;;
2021/06/23 09:58:10;;;;;;;2.4;0.8;;;;;;;27.88;51.45703;938.427;;;;
2021/06/23 10:00:36;;;;;;;0.3;0.3;;;;;;;28.51;50.30273;938.397;;;;
2021/06/23 10:03:00;;;;;;;0.1;0.1;;;;;;;27.47;53.86621;938.3396;;;;
2021/06/23 10:05:25;;;;;;;0.4;0.4;;;;;;;27.27;54.84961;938.3635;;;;
2021/06/23 10:07:50;;;;;;;0.1;0.1;;;;;;;27.65;52.94922;938.3279;;;;
2021/06/23 10:10:16;;;;;;;0.2;0.2;;;;;;;27.26;54.43359;938.3535;;;;
2021/06/23 10:12:40;;;;;;;0.1;0.1;;;;;;;27.08;54.7207;938.3466;;;;
2021/06/23 10:15:05;;;;;;;1.1;0.6;;;;;;;27.11;55.22168;938.252;;;;
2021/06/23 10:17:30;;;;;;;0.3;0.3;;;;;;;26.72;55.49414;938.2247;;;;
2021/06/23 10:19:56;;;;;;;0.1;0.1;;;;;;;26.83;54.53613;938.2605;;;;
2021/06/23 10:22:21;;;;;;;0.6;0.6;;;;;;;26.82;56.41699;938.2349;;;;
2021/06/23 10:24:47;;;;;;;0.4;0.4;;;;;;;26.53;56.14551;938.1566;;;;
2021/06/23 10:28:12;;;;;;;0.2;0.2;;;;;;;26.02;56.9209;938.1519;;;;
2021/06/23 10:30:37;;;;;;;0;0;;;;;;;25.88;58.67578;938.1166;;;;
2021/06/23 10:33:02;;;;;;;0.2;0.2;;;;;;;25.59;59.7959;938.103;;;;
2021/06/23 10:35:28;;;;;;;0.6;0.6;;;;;;;25.77;59.24023;938.1412;;;;
2021/06/23 10:37:53;;;;;;;0.2;0.2;;;;;;;25.44;61.86523;938.2024;;;;
2021/06/23 10:40:19;;;;;;;0.4;0.3;;;;;;;25.11;59.96777;938.1067;;;;
2021/06/23 10:42:44;;;;;;;0.3;0.3;;;;;;;25.41;61.09375;938.1163;;;;
2021/06/23 10:45:10;;;;;;;0.3;0.3;;;;;;;25.89;58.00391;938.1291;;;;
2021/06/23 10:47:37;;;;;;;0.4;0.4;;;;;;;26.1;56.64648;938.0981;;;;
2021/06/23 10:50:01;;;;;;;0.4;0.3;;;;;;;26.17;56.40723;938.0242;;;;
2021/06/23 10:52:26;;;;;;;0.2;0.2;;;;;;;26.29;59.77246;938.1188;;;;
2021/06/23 10:54:51;;;;;;;0.2;0.2;;;;;;;26.16;58.23926;938.0413;;;;
2021/06/23 10:57:16;;;;;;;0.2;0.2;;;;;;;26.33;58.56934;938.05;;;;
2021/06/23 10:59:41;;;;;;;0.2;0.2;;;;;;;26.62;56.09766;937.9266;;;;
2021/06/23 11:02:06;;;;;;;0.3;0.3;;;;;;;26.6;56.46191;937.9587;;;;
2021/06/23 11:04:43;;;;;;;0;0;;;;;;;26.47;57.6748;938.0026;;;;
2021/06/23 11:07:08;;;;;;;0.7;0.7;;;;;;;25.69;61.6416;937.9345;;;;
2021/06/23 11:09:33;;;;;;;0.3;0.3;;;;;;;25.04;62.73242;937.8842;;;;
2021/06/23 11:11:59;;;;;;;0.5;0.3;;;;;;;24.95;65.64551;937.8652;;;;
2021/06/23 11:14:24;;;;;;;0.3;0.3;;;;;;;25.18;63.95508;937.8067;;;;
2021/06/23 11:16:49;;;;;;;0.2;0.2;;;;;;;25.3;60.28809;937.8144;;;;
2021/06/23 11:19:14;;;;;;;0.1;0.1;;;;;;;25.59;59.27539;937.8622;;;;
2021/06/23 11:21:39;;;;;;;0.4;0.4;;;;;;;25.82;56.87207;937.8808;;;;
2021/06/23 11:24:05;;;;;;;1.4;0.5;;;;;;;25.82;56.57617;937.9102;;;;
2021/06/23 11:26:33;;;;;;;0.5;0.5;;;;;;;25.39;61.43457;937.8694;;;;
2021/06/23 11:28:56;;;;;;;1;0.7;;;;;;;25.18;62.19629;937.9119;;;;
2021/06/23 11:31:23;;;;;;;0.4;0.4;;;;;;;25.45;60.94727;937.9109;;;;
2021/06/23 11:33:57;;;;;;;0.6;0.6;;;;;;;25.12;61.36133;937.8953;;;;
2021/06/23 11:36:18;;;;;;;0.1;0.1;;;;;;;25.21;59.19043;937.8681;;;;
2021/06/23 11:38:43;;;;;;;0.5;0.5;;;;;;;25.28;59.84863;937.8811;;;;
2021/06/23 11:41:08;;;;;;;0.2;0.2;;;;;;;25.38;61.05469;937.8619;;;;
2021/06/23 11:43:33;;;;;;;0.3;0.3;;;;;;;25.6;61.65332;937.8984;;;;
2021/06/23 11:45:59;;;;;;;0.1;0.1;;;;;;;25.92;59.5918;937.8981;;;;
2021/06/23 11:48:24;;;;;;;0.5;0.5;;;;;;;25.7;59.77539;937.8745;;;;
2021/06/23 11:50:50;;;;;;;0.1;0.1;;;;;;;25.38;60.14551;937.861;;;;
2021/06/23 11:53:15;;;;;;;0.2;0.2;;;;;;;25.33;59.62012;937.8639;;;;
2021/06/23 11:55:41;;;;;;;0.5;0.5;;;;;;;25.39;61.73047;937.8945;;;;
2021/06/23 11:58:06;;;;;;;0.2;0.2;;;;;;;24.99;63.01953;937.9561;;;;
2021/06/23 12:00:31;;;;;;;0.9;0.6;;;;;;;25.59;60.82324;937.9023;;;;
2021/06/23 12:02:58;;;;;;;0.3;0.3;;;;;;;26.05;58.90039;937.85;;;;
2021/06/23 12:05:22;;;;;;;0.2;0.2;;;;;;;26.22;59.19531;937.8861;;;;
2021/06/23 12:07:47;;;;;;;0.3;0.3;;;;;;;26;61.0459;937.832;;;;
2021/06/23 12:10:12;;;;;;;0.8;0.8;;;;;;;25.95;60.7666;937.8209;;;;
2021/06/23 12:12:39;;;;;;;0.3;0.3;;;;;;;25.73;60.47559;937.7346;;;;
2021/06/23 12:15:04;;;;;;;0.4;0.4;;;;;;;25.42;62.4541;937.7263;;;;
2021/06/23 12:17:29;;;;;;;0.3;0.3;;;;;;;25.71;60.14355;937.7501;;;;
2021/06/23 12:19:54;;;;;;;0.7;0.7;;;;;;;25.54;60.11914;937.7542;;;;
2021/06/23 12:22:23;;;;;;;0.5;0.5;;;;;;;25.24;63.07813;937.7822;;;;
2021/06/23 12:24:46;;;;;;;0.3;0.3;;;;;;;25.27;62.83594;937.7478;;;;
2021/06/23 12:27:13;;;;;;;0.1;0.1;;;;;;;25.58;62.41895;937.8106;;;;
2021/06/23 12:29:38;;;;;;;0.4;0.4;;;;;;;25.85;60.54004;937.8094;;;;
2021/06/23 12:32:04;;;;;;;0.4;0.4;;;;;;;25.63;61.8457;937.855;;;;
2021/06/23 12:34:29;;;;;;;0.2;0.2;;;;;;;25.42;61.28418;937.8519;;;;
2021/06/23 12:36:54;;;;;;;2.2;0.8;;;;;;;25.12;62.57715;937.8275;;;;
2021/06/23 12:39:20;;;;;;;6.9;0.8;;;;;;;25.13;63.2627;937.7733;;;;
2021/06/23 12:41:46;;;;;;;0.3;0.3;;;;;;;24.75;63.25684;937.7356;;;;
2021/06/23 12:44:11;;;;;;;0.2;0.2;;;;;;;24.83;61.42773;937.6842;;;;
2021/06/23 12:46:38;;;;;;;0.3;0.3;;;;;;;24.98;60.81055;937.7203;;;;
2021/06/23 12:49:02;;;;;;;0.5;0.4;;;;;;;24.76;60.3584;937.6414;;;;
2021/06/23 12:51:28;;;;;;;0.3;0.3;;;;;;;24.97;61.4834;937.6415;;;;
2021/06/23 12:53:53;;;;;;;0.4;0.4;;;;;;;24.97;62.42773;937.698;;;;
2021/06/23 12:56:20;;;;;;;3.8;0.9;;;;;;;24.85;61.46582;937.6563;;;;
2021/06/23 12:58:45;;;;;;;0.6;0.6;;;;;;;24.81;62.34473;937.676;;;;
2021/06/23 13:01:10;;;;;;;0.3;0.3;;;;;;;24.86;62.3418;937.6663;;;;
2021/06/23 13:03:35;;;;;;;0.4;0.4;;;;;;;25.14;60.86816;937.6613;;;;
2021/06/23 13:06:04;;;;;;;0.2;0.2;;;;;;;25.14;61.97754;937.746;;;;
2021/06/23 13:08:26;;;;;;;0.2;0.2;;;;;;;25.29;61.89258;937.7194;;;;
2021/06/23 13:10:51;;;;;;;2.1;0.6;;;;;;;25.81;59.17578;937.7019;;;;
2021/06/23 13:13:16;;;;;;;0.3;0.3;;;;;;;26.22;59.38281;937.6823;;;;
2021/06/23 13:15:47;;;;;;;0.4;0.4;;;;;;;26.38;59.49902;937.6628;;;;
2021/06/23 13:18:13;;;;;;;0.7;0.7;;;;;;;26.32;56.85352;937.767;;;;
2021/06/23 13:20:39;;;;;;;2.2;0.9;;;;;;;26.31;57.20605;937.8077;;;;
2021/06/23 13:23:04;;;;;;;0.3;0.3;;;;;;;26.71;56.77051;937.7794;;;;
2021/06/23 13:25:29;;;;;;;0.7;0.7;;;;;;;26.95;56.57617;937.7559;;;;
2021/06/23 13:27:55;;;;;;;0.3;0.3;;;;;;;26.96;55.84277;937.6972;;;;
2021/06/23 13:30:20;;;;;;;0.5;0.5;;;;;;;27.06;55.28711;937.7755;;;;
2021/06/23 13:32:48;;;;;;;0.6;0.6;;;;;;;27.07;56.30762;937.7805;;;;
2021/06/23 13:35:13;;;;;;;0.9;0.8;;;;;;;26.89;54.75684;937.6861;;;;
2021/06/23 13:37:38;;;;;;;0.6;0.6;;;;;;;26.88;56.01074;937.6804;;;;
2021/06/23 13:40:04;;;;;;;0.4;0.4;;;;;;;26.09;57.72266;937.6531;;;;
2021/06/23 13:42:30;;;;;;;0.4;0.4;;;;;;;26.15;56.99609;937.633;;;;
2021/06/23 13:44:55;;;;;;;0.7;0.7;;;;;;;25.72;58.33594;937.5854;;;;
2021/06/23 13:47:20;;;;;;;0.4;0.4;;;;;;;25.76;59.19238;937.5944;;;;
2021/06/23 13:49:48;;;;;;;3.3;0.9;;;;;;;25.62;60.32031;937.6503;;;;
2021/06/23 13:52:11;;;;;;;0.7;0.7;;;;;;;25.32;61.16406;937.718;;;;
2021/06/23 13:54:38;;;;;;;0.2;0.2;;;;;;;25.49;61.99121;937.6934;;;;
2021/06/23 13:57:04;;;;;;;1.3;0.5;;;;;;;25.43;61.40527;937.655;;;;
2021/06/23 13:59:29;;;;;;;0.8;0.5;;;;;;;25.32;61.73242;937.6322;;;;
2021/06/23 14:01:54;;;;;;;0.7;0.7;;;;;;;25.22;62.08496;937.5609;;;;
2021/06/23 14:04:20;;;;;;;0.5;0.5;;;;;;;25.24;61.63867;937.5895;;;;
2021/06/23 14:06:54;;;;;;;0.9;0.4;;;;;;;25.17;61.03809;937.5634;;;;
2021/06/23 14:09:10;;;;;;;0.3;0.3;;;;;;;25.36;60.30859;937.5552;;;;
2021/06/23 14:11:35;;;;;;;0.4;0.4;;;;;;;25.55;59.53125;937.525;;;;
2021/06/23 14:14:02;;;;;;;0.3;0.3;;;;;;;25.66;60.07715;937.4818;;;;
2021/06/23 14:16:25;;;;;;;0.8;0.4;;;;;;;26.11;59.67676;937.4462;;;;
2021/06/23 14:18:50;;;;;;;0.5;0.5;;;;;;;26.41;58.09277;937.4387;;;;
2021/06/23 14:21:15;;;;;;;0.3;0.3;;;;;;;26.57;57.28613;937.3271;;;;
2021/06/23 14:23:41;;;;;;;0.5;0.5;;;;;;;26.76;57.55957;937.3619;;;;
2021/06/23 14:26:07;;;;;;;0.5;0.5;;;;;;;26.55;57.2373;937.4395;;;;
2021/06/23 14:28:33;;;;;;;0.3;0.3;;;;;;;26.76;55.88965;937.4472;;;;
2021/06/23 14:31:00;;;;;;;0.2;0.2;;;;;;;26.78;55.80859;937.4167;;;;